Time;durP1;ratioP1;P1;durP2;ratioP2;P2;SDS_P1;SDS_P2;PMS_P1;PMS_P2;Temp;Humidity;BMP_temperature;BMP_pressure;BME280_temperature;BME280_humidity;BME280_pressure;Samples;Min_cycle;Max_cycle;Signal;HPM_P1;HPM_P2
2021/12/20 00:00:41;;;;;;;17.95;8.32;;;;;;;;;;5002286;28;20184;-90
2021/12/20 00:03:06;;;;;;;18.88;8.95;;;;;;;;;;5005944;28;20505;-91
2021/12/20 00:05:31;;;;;;;17.65;8.88;;;;;;;;;;5002430;28;20041;-90
2021/12/20 00:07:57;;;;;;;16.83;8.15;;;;;;;;;;5001610;28;20052;-89
2021/12/20 00:10:22;;;;;;;15.95;8.50;;;;;;;;;;5020208;28;20031;-89
2021/12/20 00:12:47;;;;;;;18.20;8.63;;;;;;;;;;4985165;28;20038;-89
2021/12/20 00:15:13;;;;;;;18.67;9.20;;;;;;;;;;4985411;28;20085;-90
2021/12/20 00:17:38;;;;;;;18.27;9.25;;;;;;;;;;5001638;28;20041;-91
2021/12/20 00:20:03;;;;;;;18.60;8.45;;;;;;;;;;5001903;28;20030;-90
2021/12/20 00:22:29;;;;;;;16.63;8.38;;;;;;;;;;5002686;28;20026;-89
2021/12/20 00:24:54;;;;;;;16.65;8.50;;;;;;;;;;4985603;28;20088;-89
2021/12/20 00:27:19;;;;;;;19.70;8.68;;;;;;;;;;5018566;28;20488;-89
2021/12/20 00:29:45;;;;;;;15.65;8.23;;;;;;;;;;4985722;28;20030;-90
2021/12/20 00:32:10;;;;;;;17.92;8.07;;;;;;;;;;5001833;28;20034;-89
2021/12/20 00:34:36;;;;;;;16.55;8.10;;;;;;;;;;5019746;28;20462;-88
2021/12/20 00:37:04;;;;;;;15.32;8.05;;;;;;;;;;4984972;28;20022;-90
2021/12/20 00:42:14;;;;;;;18.13;8.00;;;;;;;;;;5019241;28;20034;-90
2021/12/20 00:44:39;;;;;;;14.85;7.70;;;;;;;;;;4985162;28;20449;-90
2021/12/20 00:47:04;;;;;;;16.15;7.78;;;;;;;;;;4984858;28;20037;-88
2021/12/20 00:49:30;;;;;;;16.77;8.77;;;;;;;;;;5002855;28;20056;-91
2021/12/20 00:51:55;;;;;;;16.25;8.88;;;;;;;;;;5001684;28;20038;-90
2021/12/20 00:54:20;;;;;;;18.58;8.48;;;;;;;;;;5001478;28;20163;-89
2021/12/20 00:56:46;;;;;;;17.42;8.68;;;;;;;;;;5001261;28;20026;-90
2021/12/20 00:59:11;;;;;;;16.27;8.63;;;;;;;;;;5019043;28;20092;-89
2021/12/20 01:01:36;;;;;;;16.95;8.52;;;;;;;;;;4984268;28;20473;-91
2021/12/20 01:04:02;;;;;;;16.35;8.55;;;;;;;;;;5001630;28;20065;-91
2021/12/20 01:06:27;;;;;;;16.23;8.35;;;;;;;;;;5001798;28;20128;-90
2021/12/20 01:08:53;;;;;;;18.65;8.65;;;;;;;;;;4984945;28;20494;-90
2021/12/20 01:11:23;;;;;;;17.13;8.57;;;;;;;;;;5001857;28;20010;-90
2021/12/20 01:13:48;;;;;;;18.48;9.00;;;;;;;;;;5001907;28;20034;-89
2021/12/20 01:16:14;;;;;;;17.23;8.82;;;;;;;;;;4985048;28;20041;-89
2021/12/20 01:18:39;;;;;;;16.13;7.82;;;;;;;;;;4985252;28;20045;-90
2021/12/20 01:21:05;;;;;;;16.67;8.65;;;;;;;;;;5001592;28;20034;-90
2021/12/20 01:23:30;;;;;;;18.85;8.63;;;;;;;;;;5002269;28;20034;-90
2021/12/20 01:25:55;;;;;;;17.05;9.10;;;;;;;;;;5000819;28;20045;-90
2021/12/20 01:28:22;;;;;;;14.35;8.30;;;;;;;;;;5017773;28;20409;-90
2021/12/20 01:30:47;;;;;;;15.70;7.97;;;;;;;;;;5001403;28;20052;-91
2021/12/20 01:33:13;;;;;;;13.98;7.18;;;;;;;;;;5000688;28;20490;-90
2021/12/20 01:35:38;;;;;;;15.20;8.02;;;;;;;;;;5000818;28;20544;-90
2021/12/20 01:38:04;;;;;;;17.35;8.25;;;;;;;;;;5000866;28;20498;-89
2021/12/20 01:40:29;;;;;;;14.43;8.00;;;;;;;;;;5018429;28;20092;-91
2021/12/20 01:42:56;;;;;;;14.52;7.35;;;;;;;;;;5018385;28;20037;-90
2021/12/20 01:45:23;;;;;;;14.43;7.47;;;;;;;;;;5001299;28;20088;-89
2021/12/20 01:47:52;;;;;;;15.10;7.90;;;;;;;;;;5000364;28;20042;-91
2021/12/20 01:50:35;;;;;;;15.52;7.70;;;;;;;;;;4985094;28;20029;-92
2021/12/20 01:53:01;;;;;;;16.17;8.07;;;;;;;;;;5000839;28;20057;-91
2021/12/20 01:55:26;;;;;;;13.55;7.85;;;;;;;;;;5001015;28;20030;-90
2021/12/20 01:57:51;;;;;;;14.82;7.43;;;;;;;;;;4984402;28;20038;-91
2021/12/20 02:00:17;;;;;;;14.27;7.43;;;;;;;;;;5001507;28;20080;-91
2021/12/20 02:03:02;;;;;;;12.50;7.00;;;;;;;;;;5018808;28;20037;-91
2021/12/20 02:05:46;;;;;;;14.50;7.53;;;;;;;;;;5001871;28;20050;-90
2021/12/20 02:08:21;;;;;;;14.52;7.30;;;;;;;;;;4984414;28;20037;-90
2021/12/20 02:10:46;;;;;;;15.07;7.75;;;;;;;;;;5000429;28;20105;-89
2021/12/20 02:13:12;;;;;;;14.27;7.57;;;;;;;;;;4983853;28;20041;-91
2021/12/20 02:15:37;;;;;;;11.25;6.47;;;;;;;;;;4983225;28;20038;-90
2021/12/20 02:18:02;;;;;;;16.00;7.28;;;;;;;;;;5001000;28;20038;-91
2021/12/20 02:20:28;;;;;;;14.88;7.75;;;;;;;;;;5001251;28;20049;-91
2021/12/20 02:22:53;;;;;;;14.98;7.40;;;;;;;;;;5001609;28;20474;-90
2021/12/20 02:25:22;;;;;;;14.43;7.85;;;;;;;;;;5018879;28;20062;-90
2021/12/20 02:27:48;;;;;;;14.38;7.20;;;;;;;;;;5001186;28;20041;-88
2021/12/20 02:30:37;;;;;;;13.75;7.53;;;;;;;;;;5018554;28;20543;-88
2021/12/20 02:38:27;;;;;;;16.40;7.35;;;;;;;;;;4999563;28;20034;-90
2021/12/20 02:40:52;;;;;;;14.73;7.60;;;;;;;;;;4984470;28;20394;-89
2021/12/20 02:43:18;;;;;;;15.13;7.88;;;;;;;;;;5017274;28;20026;-91
2021/12/20 02:45:44;;;;;;;15.82;8.30;;;;;;;;;;4999517;28;20137;-90
2021/12/20 02:48:09;;;;;;;15.93;8.02;;;;;;;;;;5000074;28;20062;-90
2021/12/20 02:50:34;;;;;;;14.00;7.18;;;;;;;;;;4999182;28;20537;-89
2021/12/20 02:53:00;;;;;;;17.42;8.32;;;;;;;;;;5016995;28;20501;-89
2021/12/20 02:55:25;;;;;;;14.43;7.60;;;;;;;;;;4999155;28;20482;-91
2021/12/20 02:57:50;;;;;;;14.18;7.43;;;;;;;;;;4999087;28;20041;-90
2021/12/20 03:00:16;;;;;;;15.75;7.55;;;;;;;;;;4998211;28;20073;-91
2021/12/20 03:02:41;;;;;;;16.48;7.78;;;;;;;;;;5016884;28;20034;-90
2021/12/20 03:05:06;;;;;;;13.15;7.50;;;;;;;;;;4982883;28;20038;-90
2021/12/20 03:07:40;;;;;;;14.77;7.57;;;;;;;;;;4998989;28;20054;-89
2021/12/20 03:10:06;;;;;;;14.38;7.53;;;;;;;;;;4982670;28;20038;-89
2021/12/20 03:12:32;;;;;;;13.55;7.53;;;;;;;;;;4982874;28;20030;-90
2021/12/20 03:15:04;;;;;;;13.82;7.35;;;;;;;;;;5015914;28;20085;-90
2021/12/20 03:17:29;;;;;;;14.48;7.07;;;;;;;;;;4982322;28;20026;-90
2021/12/20 03:19:54;;;;;;;13.82;6.97;;;;;;;;;;5016959;28;20045;-90
2021/12/20 03:22:20;;;;;;;14.70;7.85;;;;;;;;;;4998953;28;20038;-90
2021/12/20 03:24:45;;;;;;;14.52;7.50;;;;;;;;;;4998941;28;20030;-90
2021/12/20 03:27:10;;;;;;;14.65;7.03;;;;;;;;;;5015988;28;20061;-90
2021/12/20 03:29:36;;;;;;;15.38;7.28;;;;;;;;;;4982258;28;20053;-90
2021/12/20 03:32:01;;;;;;;18.30;8.10;;;;;;;;;;4997833;28;20372;-90
2021/12/20 03:34:26;;;;;;;14.48;7.45;;;;;;;;;;4998499;28;20070;-91
2021/12/20 03:36:52;;;;;;;11.80;6.75;;;;;;;;;;5016265;28;20045;-90
2021/12/20 03:39:17;;;;;;;15.82;8.07;;;;;;;;;;4998947;28;20065;-90
2021/12/20 03:41:42;;;;;;;13.45;7.13;;;;;;;;;;4985946;28;20045;-90
2021/12/20 03:44:08;;;;;;;15.57;7.30;;;;;;;;;;5002112;28;20038;-90
2021/12/20 03:46:33;;;;;;;12.90;7.20;;;;;;;;;;5001198;28;20053;-90
2021/12/20 03:48:59;;;;;;;13.43;7.43;;;;;;;;;;5020024;28;20482;-90
2021/12/20 03:51:24;;;;;;;14.82;7.68;;;;;;;;;;5020004;28;20033;-91
2021/12/20 03:53:50;;;;;;;13.73;7.20;;;;;;;;;;5002501;28;20052;-91
2021/12/20 03:56:15;;;;;;;13.75;7.38;;;;;;;;;;5002149;28;20077;-90
2021/12/20 03:58:40;;;;;;;14.85;7.47;;;;;;;;;;5019972;28;20092;-89
2021/12/20 04:01:06;;;;;;;13.98;7.18;;;;;;;;;;5001814;28;20042;-90
2021/12/20 04:03:34;;;;;;;12.88;7.07;;;;;;;;;;5002074;28;20494;-90
2021/12/20 04:05:59;;;;;;;11.85;6.45;;;;;;;;;;4986569;28;20390;-90
2021/12/20 04:08:24;;;;;;;15.23;7.60;;;;;;;;;;4986006;28;20462;-90
2021/12/20 04:10:50;;;;;;;13.63;7.50;;;;;;;;;;4985521;28;20416;-91
2021/12/20 04:13:15;;;;;;;14.02;7.30;;;;;;;;;;5001255;28;20053;-90
2021/12/20 04:15:40;;;;;;;14.02;7.25;;;;;;;;;;5001730;28;20488;-91
2021/12/20 04:18:06;;;;;;;14.13;7.35;;;;;;;;;;4984480;28;20049;-90
2021/12/20 04:20:31;;;;;;;13.55;7.43;;;;;;;;;;5002043;28;20037;-90
2021/12/20 04:22:56;;;;;;;13.20;7.00;;;;;;;;;;5019807;28;20028;-91
2021/12/20 04:25:22;;;;;;;14.65;7.60;;;;;;;;;;4985248;28;20040;-90
2021/12/20 04:27:47;;;;;;;15.82;7.35;;;;;;;;;;5000818;28;20129;-89
2021/12/20 04:30:13;;;;;;;13.48;7.43;;;;;;;;;;4985052;28;20073;-91
2021/12/20 04:32:38;;;;;;;12.90;7.32;;;;;;;;;;5017821;28;20064;-90
2021/12/20 04:35:03;;;;;;;13.00;7.00;;;;;;;;;;5018951;28;20037;-90
2021/12/20 04:37:29;;;;;;;14.35;7.25;;;;;;;;;;5001590;28;20030;-90
2021/12/20 04:39:54;;;;;;;12.88;6.65;;;;;;;;;;5001139;28;20528;-90
2021/12/20 04:42:19;;;;;;;15.45;7.50;;;;;;;;;;5002069;28;20034;-89
2021/12/20 04:44:45;;;;;;;15.10;7.22;;;;;;;;;;5018845;28;20030;-89
2021/12/20 04:47:10;;;;;;;16.90;7.95;;;;;;;;;;5000771;28;20045;-89
2021/12/20 04:49:35;;;;;;;15.40;7.18;;;;;;;;;;5002083;28;20041;-88
2021/12/20 04:52:01;;;;;;;14.95;7.32;;;;;;;;;;5001628;28;20080;-91
2021/12/20 04:54:26;;;;;;;16.63;7.75;;;;;;;;;;4985496;28;20092;-89
2021/12/20 04:56:51;;;;;;;13.20;6.93;;;;;;;;;;5019169;28;20022;-90
2021/12/20 04:59:17;;;;;;;16.40;7.97;;;;;;;;;;5001421;28;20042;-90
2021/12/20 05:01:42;;;;;;;16.33;7.63;;;;;;;;;;4985082;28;20057;-90
2021/12/20 05:04:07;;;;;;;17.15;7.68;;;;;;;;;;5019224;28;20084;-89
2021/12/20 05:06:33;;;;;;;13.48;6.93;;;;;;;;;;5001514;28;20072;-91
2021/12/20 05:08:59;;;;;;;14.30;7.13;;;;;;;;;;5001640;28;20054;-90
2021/12/20 05:11:25;;;;;;;14.85;7.28;;;;;;;;;;5001590;28;20105;-89
2021/12/20 05:13:51;;;;;;;12.88;6.70;;;;;;;;;;5001366;28;20146;-89
2021/12/20 05:16:16;;;;;;;13.98;7.25;;;;;;;;;;5000208;28;20042;-90
2021/12/20 05:18:41;;;;;;;15.18;7.63;;;;;;;;;;5000707;28;20445;-90
2021/12/20 05:21:07;;;;;;;12.48;6.53;;;;;;;;;;4984443;28;20482;-90
2021/12/20 05:23:32;;;;;;;15.65;7.07;;;;;;;;;;5018350;28;20482;-89
2021/12/20 05:25:57;;;;;;;13.13;7.15;;;;;;;;;;4984596;28;20088;-89
2021/12/20 05:28:23;;;;;;;15.95;7.53;;;;;;;;;;4985561;28;20049;-91
2021/12/20 05:30:50;;;;;;;14.35;7.45;;;;;;;;;;4984326;28;20034;-91
2021/12/20 05:33:16;;;;;;;17.38;7.75;;;;;;;;;;5000610;28;20046;-89
2021/12/20 05:35:41;;;;;;;15.25;7.95;;;;;;;;;;5018054;28;20041;-91
2021/12/20 05:38:06;;;;;;;16.02;8.00;;;;;;;;;;4984527;28;20037;-91
2021/12/20 05:40:32;;;;;;;16.00;8.02;;;;;;;;;;4984121;28;20482;-89
2021/12/20 05:42:57;;;;;;;14.82;7.22;;;;;;;;;;4984394;28;20065;-90
2021/12/20 05:45:23;;;;;;;17.73;8.85;;;;;;;;;;4983762;28;20038;-90
2021/12/20 05:47:49;;;;;;;15.13;8.20;;;;;;;;;;4983116;28;20025;-90
2021/12/20 05:50:14;;;;;;;17.27;7.85;;;;;;;;;;4999860;28;20038;-91
2021/12/20 05:52:39;;;;;;;14.25;7.63;;;;;;;;;;5017673;28;20062;-90
2021/12/20 05:55:05;;;;;;;15.68;8.23;;;;;;;;;;5017150;28;20046;-90
2021/12/20 05:57:32;;;;;;;16.25;8.30;;;;;;;;;;5017382;28;20029;-90
2021/12/20 05:59:57;;;;;;;13.85;7.03;;;;;;;;;;4999679;28;20434;-89
2021/12/20 06:02:22;;;;;;;13.00;7.15;;;;;;;;;;4999262;28;20029;-90
2021/12/20 06:04:50;;;;;;;18.25;9.00;;;;;;;;;;4999890;28;20045;-91
2021/12/20 06:07:16;;;;;;;19.08;9.90;;;;;;;;;;5017705;28;20501;-91
2021/12/20 06:09:41;;;;;;;16.27;8.32;;;;;;;;;;5017247;28;20069;-90
2021/12/20 06:12:06;;;;;;;14.68;6.85;;;;;;;;;;4999599;28;20041;-90
2021/12/20 06:14:33;;;;;;;15.68;8.27;;;;;;;;;;4983554;28;20045;-89
2021/12/20 06:17:00;;;;;;;21.45;9.85;;;;;;;;;;4982940;28;20038;-91
2021/12/20 06:19:25;;;;;;;23.25;9.48;;;;;;;;;;4983332;28;20513;-91
2021/12/20 06:21:50;;;;;;;22.63;9.90;;;;;;;;;;4999740;28;20042;-91
2021/12/20 06:24:16;;;;;;;17.95;7.85;;;;;;;;;;5000181;28;20030;-90
2021/12/20 06:26:41;;;;;;;18.75;8.82;;;;;;;;;;4998975;28;20034;-89
2021/12/20 06:29:06;;;;;;;18.42;8.25;;;;;;;;;;4999406;28;20065;-89
2021/12/20 06:31:32;;;;;;;16.45;7.53;;;;;;;;;;5000978;28;20018;-91
2021/12/20 06:33:57;;;;;;;15.50;7.75;;;;;;;;;;4999784;28;20050;-90
2021/12/20 06:36:24;;;;;;;15.88;8.05;;;;;;;;;;4999920;28;20030;-90
2021/12/20 06:38:50;;;;;;;15.13;6.82;;;;;;;;;;5000733;28;20398;-90
2021/12/20 06:41:17;;;;;;;18.73;8.52;;;;;;;;;;4999458;28;20470;-89
2021/12/20 06:43:45;;;;;;;17.38;9.38;;;;;;;;;;4983108;28;20028;-91
2021/12/20 06:46:10;;;;;;;17.77;9.27;;;;;;;;;;4983106;28;20046;-90
2021/12/20 06:48:36;;;;;;;18.00;8.77;;;;;;;;;;4999786;28;20094;-90
2021/12/20 06:51:01;;;;;;;19.17;9.10;;;;;;;;;;4983695;28;20081;-89
2021/12/20 06:53:27;;;;;;;16.35;8.13;;;;;;;;;;4984280;28;20034;-89
2021/12/20 06:55:53;;;;;;;14.02;7.75;;;;;;;;;;4999553;28;20498;-89
2021/12/20 06:58:18;;;;;;;17.58;8.20;;;;;;;;;;4999617;28;20034;-89
2021/12/20 07:00:43;;;;;;;17.92;9.18;;;;;;;;;;4983807;28;20148;-88
2021/12/20 07:03:09;;;;;;;17.95;8.88;;;;;;;;;;4983190;28;20037;-90
2021/12/20 07:05:34;;;;;;;16.27;9.05;;;;;;;;;;4998901;28;20080;-90
2021/12/20 07:08:02;;;;;;;16.05;8.23;;;;;;;;;;4998559;28;20034;-91
2021/12/20 07:10:29;;;;;;;15.52;8.05;;;;;;;;;;4983507;28;20045;-90
2021/12/20 07:12:55;;;;;;;15.50;8.45;;;;;;;;;;4998726;28;20394;-89
2021/12/20 07:15:21;;;;;;;16.25;7.95;;;;;;;;;;5017544;28;20040;-91
2021/12/20 07:17:46;;;;;;;15.73;8.23;;;;;;;;;;4986534;28;20042;-91
2021/12/20 07:20:12;;;;;;;15.90;8.15;;;;;;;;;;5001738;28;20073;-91
2021/12/20 07:22:37;;;;;;;16.88;8.25;;;;;;;;;;5002294;28;20022;-91
2021/12/20 07:25:02;;;;;;;14.95;7.38;;;;;;;;;;5002173;28;20045;-90
2021/12/20 07:27:28;;;;;;;15.98;7.65;;;;;;;;;;4985748;28;20096;-90
2021/12/20 07:29:53;;;;;;;13.00;7.20;;;;;;;;;;5002146;28;20090;-90
2021/12/20 07:32:18;;;;;;;12.60;6.93;;;;;;;;;;4986227;28;20034;-89
2021/12/20 07:34:44;;;;;;;15.50;7.82;;;;;;;;;;5020064;28;20041;-90
2021/12/20 07:37:09;;;;;;;17.20;8.20;;;;;;;;;;5020858;28;20121;-88
2021/12/20 07:39:34;;;;;;;15.13;7.43;;;;;;;;;;4987050;28;20041;-88
2021/12/20 07:42:00;;;;;;;13.52;7.20;;;;;;;;;;5020809;28;20120;-89
2021/12/20 07:44:25;;;;;;;15.20;6.93;;;;;;;;;;5002541;28;20010;-89
2021/12/20 07:46:50;;;;;;;13.13;7.13;;;;;;;;;;5017754;28;20505;-89
2021/12/20 07:49:16;;;;;;;15.90;7.57;;;;;;;;;;5019591;28;20026;-89
2021/12/20 07:51:41;;;;;;;13.80;7.65;;;;;;;;;;5002210;28;20184;-90
2021/12/20 07:54:06;;;;;;;15.00;7.75;;;;;;;;;;5020062;28;20172;-90
2021/12/20 07:56:32;;;;;;;14.25;7.25;;;;;;;;;;5020261;28;20084;-89
2021/12/20 07:58:57;;;;;;;13.52;7.53;;;;;;;;;;5020175;28;20046;-89
2021/12/20 08:01:22;;;;;;;13.27;6.90;;;;;;;;;;5019181;28;20033;-88
2021/12/20 08:03:48;;;;;;;15.93;7.65;;;;;;;;;;5030428;28;20030;-87
2021/12/20 08:06:13;;;;;;;13.02;7.40;;;;;;;;;;4987564;28;20087;-88
2021/12/20 08:08:40;;;;;;;14.27;6.80;;;;;;;;;;5019473;28;20042;-90
2021/12/20 08:11:05;;;;;;;14.60;6.50;;;;;;;;;;5002125;28;20057;-88
2021/12/20 08:13:32;;;;;;;14.90;6.63;;;;;;;;;;5018995;28;20493;-89
2021/12/20 08:15:57;;;;;;;13.55;6.78;;;;;;;;;;5001655;28;20045;-90
2021/12/20 08:18:23;;;;;;;10.73;6.20;;;;;;;;;;5001136;28;20050;-88
2021/12/20 08:20:48;;;;;;;12.43;6.88;;;;;;;;;;4984909;28;20033;-90
2021/12/20 08:23:13;;;;;;;11.70;6.88;;;;;;;;;;5002214;28;20033;-89
2021/12/20 08:25:39;;;;;;;15.95;7.60;;;;;;;;;;4986561;28;20053;-90
2021/12/20 08:28:05;;;;;;;14.40;7.50;;;;;;;;;;5002610;28;20044;-90
2021/12/20 08:30:30;;;;;;;15.35;7.57;;;;;;;;;;5002544;28;20013;-89
2021/12/20 08:32:55;;;;;;;16.65;8.82;;;;;;;;;;5020258;28;20114;-89
2021/12/20 08:35:21;;;;;;;15.82;8.50;;;;;;;;;;4985885;28;20061;-91
2021/12/20 08:37:47;;;;;;;18.20;8.93;;;;;;;;;;5019465;28;20077;-88
2021/12/20 08:40:13;;;;;;;17.95;8.60;;;;;;;;;;5019359;28;20084;-89
2021/12/20 08:42:38;;;;;;;14.88;7.72;;;;;;;;;;4985453;28;20402;-89
2021/12/20 08:45:03;;;;;;;14.48;7.10;;;;;;;;;;5019440;28;20096;-88
2021/12/20 08:47:32;;;;;;;15.90;7.45;;;;;;;;;;5009988;28;20421;-89
2021/12/20 08:49:57;;;;;;;15.77;7.95;;;;;;;;;;4982280;28;20034;-90
2021/12/20 08:52:23;;;;;;;15.57;8.18;;;;;;;;;;4966248;28;20125;-90
2021/12/20 08:54:48;;;;;;;17.00;8.25;;;;;;;;;;4995829;28;20120;-87
2021/12/20 08:57:13;;;;;;;14.40;7.30;;;;;;;;;;5001947;28;20044;-90
2021/12/20 08:59:39;;;;;;;13.18;7.35;;;;;;;;;;5001856;28;20045;-89
2021/12/20 09:02:06;;;;;;;13.15;7.70;;;;;;;;;;5001922;28;20048;-89
2021/12/20 09:04:32;;;;;;;16.30;7.20;;;;;;;;;;5020959;28;20034;-90
2021/12/20 09:06:57;;;;;;;16.40;7.35;;;;;;;;;;5001785;28;20038;-90
2021/12/20 09:09:23;;;;;;;14.93;6.93;;;;;;;;;;5002857;28;20044;-88
2021/12/20 09:11:48;;;;;;;18.70;10.57;;;;;;;;;;5002572;28;20029;-90
2021/12/20 09:14:13;;;;;;;18.88;10.13;;;;;;;;;;5002033;28;20033;-91
2021/12/20 09:16:39;;;;;;;15.15;8.55;;;;;;;;;;5019742;28;20037;-90
2021/12/20 09:19:04;;;;;;;27.33;15.73;;;;;;;;;;5002123;28;20044;-89
2021/12/20 09:21:29;;;;;;;21.63;11.40;;;;;;;;;;4977800;28;20102;-89
2021/12/20 09:23:56;;;;;;;13.30;7.90;;;;;;;;;;5001801;28;20026;-91
2021/12/20 09:26:21;;;;;;;14.80;7.65;;;;;;;;;;4965284;28;20601;-90
2021/12/20 09:28:46;;;;;;;12.35;6.32;;;;;;;;;;4980686;28;20058;-88
2021/12/20 09:31:12;;;;;;;12.18;6.85;;;;;;;;;;4999550;28;20074;-89
2021/12/20 09:33:37;;;;;;;11.23;6.22;;;;;;;;;;4966494;28;20042;-88
2021/12/20 09:36:02;;;;;;;16.27;8.35;;;;;;;;;;4998721;28;20037;-89
2021/12/20 09:38:30;;;;;;;16.48;7.85;;;;;;;;;;4998843;28;20526;-89
2021/12/20 09:43:27;;;;;;;12.30;6.32;;;;;;;;;;4998740;28;20410;-90
2021/12/20 09:45:52;;;;;;;13.93;7.30;;;;;;;;;;4981691;28;20500;-89
2021/12/20 09:48:17;;;;;;;14.57;7.43;;;;;;;;;;4997315;28;20393;-89
2021/12/20 09:50:43;;;;;;;16.83;8.23;;;;;;;;;;5001683;28;20026;-88
2021/12/20 09:53:08;;;;;;;18.65;8.75;;;;;;;;;;5018294;28;20037;-89
2021/12/20 09:55:33;;;;;;;17.58;8.13;;;;;;;;;;4987181;28;20033;-89
2021/12/20 09:58:01;;;;;;;15.15;8.05;;;;;;;;;;5018294;28;20088;-89
2021/12/20 10:00:27;;;;;;;14.20;7.68;;;;;;;;;;5018281;28;20033;-88
2021/12/20 10:02:52;;;;;;;15.07;7.18;;;;;;;;;;5018057;28;20025;-89
2021/12/20 10:05:18;;;;;;;12.80;6.55;;;;;;;;;;4998868;28;20389;-88
2021/12/20 10:07:47;;;;;;;13.75;6.53;;;;;;;;;;4988528;28;20041;-90
2021/12/20 10:10:13;;;;;;;15.43;6.40;;;;;;;;;;5019616;28;20041;-91
2021/12/20 10:12:38;;;;;;;12.85;6.25;;;;;;;;;;4985566;28;20389;-91
2021/12/20 10:15:03;;;;;;;13.13;6.18;;;;;;;;;;5001621;28;20030;-90
2021/12/20 10:17:29;;;;;;;11.05;5.70;;;;;;;;;;5019437;28;20121;-90
2021/12/20 10:19:55;;;;;;;11.82;6.10;;;;;;;;;;4985446;28;20390;-90
2021/12/20 10:22:20;;;;;;;12.32;6.35;;;;;;;;;;5018731;28;20038;-89
2021/12/20 10:24:45;;;;;;;12.43;5.93;;;;;;;;;;5001144;28;20042;-87
2021/12/20 10:27:10;;;;;;;11.10;6.10;;;;;;;;;;5018059;28;20085;-90
2021/12/20 10:29:36;;;;;;;10.43;5.72;;;;;;;;;;5017364;28;20037;-90
2021/12/20 10:32:01;;;;;;;11.98;6.18;;;;;;;;;;5018728;28;20037;-89
2021/12/20 10:34:26;;;;;;;12.43;6.00;;;;;;;;;;5003863;28;20037;-89
2021/12/20 10:36:52;;;;;;;14.75;6.88;;;;;;;;;;5018187;28;20092;-89
2021/12/20 10:39:17;;;;;;;11.90;6.43;;;;;;;;;;5001659;28;20037;-90
2021/12/20 10:41:49;;;;;;;13.25;6.80;;;;;;;;;;4985554;28;20034;-89
2021/12/20 10:44:17;;;;;;;12.95;6.50;;;;;;;;;;5019270;28;20030;-88
2021/12/20 10:46:43;;;;;;;16.08;6.78;;;;;;;;;;5001139;28;20083;-89
2021/12/20 10:49:10;;;;;;;12.18;6.40;;;;;;;;;;5017216;28;20440;-89
2021/12/20 10:51:35;;;;;;;14.40;7.10;;;;;;;;;;5004370;28;20470;-91
2021/12/20 10:54:02;;;;;;;12.88;6.68;;;;;;;;;;5022829;28;20049;-91
2021/12/20 10:56:27;;;;;;;13.27;6.50;;;;;;;;;;5004266;28;20027;-90
2021/12/20 10:58:52;;;;;;;15.27;6.82;;;;;;;;;;4988379;28;20034;-89
2021/12/20 11:03:46;;;;;;;15.00;7.03;;;;;;;;;;5021434;28;20105;-91
2021/12/20 11:11:21;;;;;;;15.40;7.45;;;;;;;;;;5004042;28;20030;-90
2021/12/20 11:13:46;;;;;;;16.13;6.35;;;;;;;;;;5004864;28;20433;-88
2021/12/20 11:16:11;;;;;;;12.25;6.72;;;;;;;;;;5021058;28;20033;-88
2021/12/20 11:18:37;;;;;;;14.88;6.82;;;;;;;;;;5021476;28;20030;-89
2021/12/20 11:21:02;;;;;;;15.50;7.45;;;;;;;;;;5003960;28;20120;-90
2021/12/20 11:23:28;;;;;;;12.20;7.07;;;;;;;;;;5003734;28;20072;-91
2021/12/20 11:25:53;;;;;;;16.20;6.95;;;;;;;;;;5004610;28;20038;-91
2021/12/20 11:28:18;;;;;;;15.95;7.50;;;;;;;;;;5002171;28;20050;-90
2021/12/20 11:30:44;;;;;;;12.95;6.70;;;;;;;;;;5003303;28;20030;-89
2021/12/20 11:33:09;;;;;;;17.88;8.18;;;;;;;;;;4986438;28;20037;-90
2021/12/20 11:35:34;;;;;;;17.08;8.32;;;;;;;;;;5006033;28;20030;-89
2021/12/20 11:38:00;;;;;;;15.30;7.88;;;;;;;;;;5005655;28;20030;-92
2021/12/20 11:40:25;;;;;;;15.23;7.20;;;;;;;;;;4991899;28;20042;-90
2021/12/20 11:42:51;;;;;;;14.00;6.93;;;;;;;;;;5005385;28;20030;-88
2021/12/20 11:45:16;;;;;;;13.95;6.88;;;;;;;;;;5003124;28;20029;-89
2021/12/20 11:47:41;;;;;;;15.43;6.80;;;;;;;;;;4987978;28;20078;-89
2021/12/20 11:50:07;;;;;;;13.00;6.60;;;;;;;;;;5023491;28;20482;-89
2021/12/20 11:52:32;;;;;;;15.02;6.88;;;;;;;;;;5002632;28;20545;-90
2021/12/20 11:54:57;;;;;;;11.98;6.60;;;;;;;;;;5020918;28;20037;-90
2021/12/20 11:57:23;;;;;;;12.88;6.80;;;;;;;;;;5003734;28;20121;-89
2021/12/20 11:59:49;;;;;;;13.88;7.25;;;;;;;;;;5003577;28;20095;-89
2021/12/20 12:02:14;;;;;;;15.43;6.70;;;;;;;;;;5002600;28;20041;-89
2021/12/20 12:04:39;;;;;;;16.67;6.97;;;;;;;;;;5003533;28;20030;-89
2021/12/20 12:07:05;;;;;;;13.65;7.00;;;;;;;;;;5001314;28;20505;-89
2021/12/20 12:09:30;;;;;;;14.70;7.05;;;;;;;;;;4986695;28;20389;-89
2021/12/20 12:11:55;;;;;;;13.90;7.32;;;;;;;;;;5002676;28;20032;-89
2021/12/20 12:14:32;;;;;;;16.13;7.70;;;;;;;;;;5004097;28;20046;-89
2021/12/20 12:17:00;;;;;;;17.17;7.50;;;;;;;;;;5002313;28;20367;-89
2021/12/20 12:19:25;;;;;;;13.65;6.63;;;;;;;;;;5019915;28;20045;-89
2021/12/20 12:21:51;;;;;;;15.32;7.00;;;;;;;;;;5002327;28;20033;-89
2021/12/20 12:24:16;;;;;;;13.80;6.57;;;;;;;;;;5000827;28;20477;-90
2021/12/20 12:26:41;;;;;;;16.88;7.55;;;;;;;;;;5001976;28;20044;-90
2021/12/20 12:29:07;;;;;;;13.60;7.13;;;;;;;;;;5019551;28;20049;-88
2021/12/20 12:31:32;;;;;;;15.60;7.55;;;;;;;;;;5001383;28;20540;-89
2021/12/20 12:33:57;;;;;;;16.00;8.38;;;;;;;;;;5001395;28;20034;-88
2021/12/20 12:36:23;;;;;;;15.57;8.02;;;;;;;;;;4984918;28;20108;-88
2021/12/20 12:38:48;;;;;;;16.73;7.85;;;;;;;;;;5018432;28;20125;-89
2021/12/20 12:41:15;;;;;;;12.48;6.45;;;;;;;;;;5019214;28;20045;-87
2021/12/20 12:43:41;;;;;;;13.38;6.15;;;;;;;;;;4986347;28;20034;-90
2021/12/20 12:46:06;;;;;;;15.23;7.43;;;;;;;;;;5001482;28;20401;-88
2021/12/20 12:48:33;;;;;;;14.88;6.65;;;;;;;;;;5018294;28;20521;-88
2021/12/20 12:50:58;;;;;;;14.38;7.00;;;;;;;;;;5018377;28;20034;-88
2021/12/20 12:53:24;;;;;;;13.05;7.10;;;;;;;;;;5001317;28;20060;-87
2021/12/20 12:55:49;;;;;;;15.98;7.85;;;;;;;;;;5018013;28;20030;-88
2021/12/20 12:58:14;;;;;;;15.20;7.70;;;;;;;;;;5001934;28;20037;-88
2021/12/20 13:00:39;;;;;;;19.65;8.68;;;;;;;;;;5002085;28;20073;-88
2021/12/20 13:03:05;;;;;;;18.05;7.72;;;;;;;;;;5001956;28;20037;-88
2021/12/20 13:05:30;;;;;;;15.15;8.05;;;;;;;;;;5001099;28;20057;-88
2021/12/20 13:07:56;;;;;;;17.35;7.95;;;;;;;;;;4985030;28;20030;-88
2021/12/20 13:10:28;;;;;;;18.00;8.55;;;;;;;;;;4984439;28;20041;-89
2021/12/20 13:12:57;;;;;;;19.67;8.98;;;;;;;;;;4983868;28;20057;-88
2021/12/20 13:15:27;;;;;;;20.40;9.15;;;;;;;;;;5000020;28;20033;-89
2021/12/20 13:17:54;;;;;;;13.52;6.38;;;;;;;;;;5017860;28;20046;-89
2021/12/20 13:20:23;;;;;;;18.20;8.90;;;;;;;;;;5000620;28;20038;-89
2021/12/20 13:22:48;;;;;;;18.08;9.48;;;;;;;;;;5000166;28;20034;-89
2021/12/20 13:25:13;;;;;;;18.25;8.75;;;;;;;;;;5017503;28;20367;-88
2021/12/20 13:27:39;;;;;;;19.85;9.15;;;;;;;;;;5017264;28;20482;-88
2021/12/20 13:30:04;;;;;;;16.80;8.27;;;;;;;;;;5000954;28;20064;-88
2021/12/20 13:32:30;;;;;;;19.38;8.40;;;;;;;;;;5020095;28;20037;-90
2021/12/20 13:34:56;;;;;;;15.93;8.23;;;;;;;;;;5017611;28;20034;-89
2021/12/20 13:37:22;;;;;;;17.27;7.95;;;;;;;;;;5017787;28;20025;-89
2021/12/20 13:39:47;;;;;;;17.58;7.65;;;;;;;;;;5000370;28;20057;-87
2021/12/20 13:42:12;;;;;;;16.70;8.02;;;;;;;;;;5000622;28;20026;-89
2021/12/20 13:44:38;;;;;;;17.42;8.00;;;;;;;;;;4983424;28;20034;-89
2021/12/20 13:47:06;;;;;;;15.48;7.95;;;;;;;;;;5000913;28;20088;-88
2021/12/20 13:49:31;;;;;;;17.15;8.55;;;;;;;;;;5019470;28;20516;-90
2021/12/20 13:51:56;;;;;;;19.83;8.70;;;;;;;;;;5022912;28;20034;-91
2021/12/20 13:54:22;;;;;;;16.50;8.40;;;;;;;;;;4985279;28;20092;-89
2021/12/20 13:56:47;;;;;;;16.40;7.93;;;;;;;;;;5000877;28;20037;-89
2021/12/20 13:59:12;;;;;;;14.15;8.13;;;;;;;;;;5000099;28;20052;-89
2021/12/20 14:01:39;;;;;;;15.85;8.70;;;;;;;;;;5000698;28;20053;-89
2021/12/20 14:04:05;;;;;;;17.83;8.40;;;;;;;;;;5003301;28;20034;-89
2021/12/20 14:06:30;;;;;;;18.38;8.57;;;;;;;;;;5019411;28;20508;-89
2021/12/20 14:08:55;;;;;;;17.30;8.52;;;;;;;;;;5019387;28;20494;-91
2021/12/20 14:11:20;;;;;;;15.82;8.13;;;;;;;;;;5000918;28;20493;-90
2021/12/20 14:13:46;;;;;;;17.42;8.20;;;;;;;;;;4984281;28;20045;-89
2021/12/20 14:16:12;;;;;;;14.25;7.50;;;;;;;;;;5023170;28;20393;-89
2021/12/20 14:18:37;;;;;;;17.55;8.13;;;;;;;;;;5002608;28;20100;-88
2021/12/20 14:21:03;;;;;;;15.55;8.40;;;;;;;;;;5007832;28;20025;-88
2021/12/20 14:23:31;;;;;;;15.88;7.85;;;;;;;;;;5024894;28;20390;-89
2021/12/20 14:25:56;;;;;;;18.85;7.63;;;;;;;;;;5005134;28;20041;-89
2021/12/20 14:28:22;;;;;;;14.48;7.28;;;;;;;;;;5024342;28;20036;-89
2021/12/20 14:30:47;;;;;;;13.02;6.82;;;;;;;;;;5020725;28;20030;-89
2021/12/20 14:33:12;;;;;;;13.35;7.35;;;;;;;;;;5005808;28;20117;-90
2021/12/20 14:35:38;;;;;;;12.15;6.82;;;;;;;;;;5000686;28;20411;-89
2021/12/20 14:38:03;;;;;;;14.57;7.38;;;;;;;;;;5016627;28;20541;-88
2021/12/20 14:40:28;;;;;;;13.38;6.65;;;;;;;;;;5017257;28;20533;-89